sensor_id;sensor_type;location;lat;lon;timestamp;P1;durP1;ratioP1;P2;durP2;ratioP2
41927;SDS011;27616;51.420;6.788;2023-02-19T00:01:18;23.10;;;14.93;;
41927;SDS011;27616;51.420;6.788;2023-02-19T00:03:49;23.50;;;15.37;;
41927;SDS011;27616;51.420;6.788;2023-02-19T00:06:17;21.77;;;14.63;;
41927;SDS011;27616;51.420;6.788;2023-02-19T00:08:44;21.63;;;15.17;;
41927;SDS011;27616;51.420;6.788;2023-02-19T00:11:11;22.23;;;15.03;;
41927;SDS011;27616;51.420;6.788;2023-02-19T00:13:39;22.35;;;15.02;;
41927;SDS011;27616;51.420;6.788;2023-02-19T00:16:11;23.20;;;15.37;;
41927;SDS011;27616;51.420;6.788;2023-02-19T00:18:38;27.77;;;18.33;;
41927;SDS011;27616;51.420;6.788;2023-02-19T00:21:05;23.00;;;16.13;;
41927;SDS011;27616;51.420;6.788;2023-02-19T00:23:31;35.20;;;22.87;;
41927;SDS011;27616;51.420;6.788;2023-02-19T00:26:00;21.87;;;15.00;;
41927;SDS011;27616;51.420;6.788;2023-02-19T00:28:28;23.57;;;15.40;;
41927;SDS011;27616;51.420;6.788;2023-02-19T00:30:54;23.30;;;15.87;;
41927;SDS011;27616;51.420;6.788;2023-02-19T00:33:19;21.97;;;15.13;;
41927;SDS011;27616;51.420;6.788;2023-02-19T00:35:45;22.50;;;15.07;;
41927;SDS011;27616;51.420;6.788;2023-02-19T00:38:11;25.37;;;16.60;;
41927;SDS011;27616;51.420;6.788;2023-02-19T00:40:37;23.37;;;15.20;;
41927;SDS011;27616;51.420;6.788;2023-02-19T00:43:03;24.27;;;16.10;;
41927;SDS011;27616;51.420;6.788;2023-02-19T00:45:28;20.63;;;15.53;;
41927;SDS011;27616;51.420;6.788;2023-02-19T00:47:54;24.33;;;16.83;;
41927;SDS011;27616;51.420;6.788;2023-02-19T00:50:20;24.03;;;15.20;;
41927;SDS011;27616;51.420;6.788;2023-02-19T00:52:46;23.70;;;15.27;;
41927;SDS011;27616;51.420;6.788;2023-02-19T00:55:11;22.40;;;15.43;;
41927;SDS011;27616;51.420;6.788;2023-02-19T00:57:37;23.37;;;15.43;;
41927;SDS011;27616;51.420;6.788;2023-02-19T01:00:03;22.47;;;15.50;;
41927;SDS011;27616;51.420;6.788;2023-02-19T01:02:30;24.17;;;16.23;;
41927;SDS011;27616;51.420;6.788;2023-02-19T01:04:56;26.13;;;16.57;;
41927;SDS011;27616;51.420;6.788;2023-02-19T01:07:22;24.67;;;15.93;;
41927;SDS011;27616;51.420;6.788;2023-02-19T01:09:49;24.63;;;15.67;;
41927;SDS011;27616;51.420;6.788;2023-02-19T01:12:15;24.90;;;16.40;;
41927;SDS011;27616;51.420;6.788;2023-02-19T01:14:41;27.23;;;16.27;;
41927;SDS011;27616;51.420;6.788;2023-02-19T01:17:06;27.23;;;17.20;;
41927;SDS011;27616;51.420;6.788;2023-02-19T01:19:32;27.30;;;17.17;;
41927;SDS011;27616;51.420;6.788;2023-02-19T01:21:58;28.93;;;18.03;;
41927;SDS011;27616;51.420;6.788;2023-02-19T01:24:24;28.87;;;17.07;;
41927;SDS011;27616;51.420;6.788;2023-02-19T01:26:49;31.53;;;17.13;;
41927;SDS011;27616;51.420;6.788;2023-02-19T01:29:15;30.20;;;18.33;;
41927;SDS011;27616;51.420;6.788;2023-02-19T01:31:41;30.27;;;17.93;;
41927;SDS011;27616;51.420;6.788;2023-02-19T01:34:08;29.83;;;18.00;;
41927;SDS011;27616;51.420;6.788;2023-02-19T01:36:35;33.37;;;18.17;;
41927;SDS011;27616;51.420;6.788;2023-02-19T01:39:03;32.20;;;17.83;;
41927;SDS011;27616;51.420;6.788;2023-02-19T01:41:30;29.93;;;17.47;;
41927;SDS011;27616;51.420;6.788;2023-02-19T01:46:34;27.07;;;17.50;;
41927;SDS011;27616;51.420;6.788;2023-02-19T01:49:11;30.00;;;17.07;;
41927;SDS011;27616;51.420;6.788;2023-02-19T01:51:38;33.53;;;18.97;;
41927;SDS011;27616;51.420;6.788;2023-02-19T01:54:09;34.17;;;17.90;;
41927;SDS011;27616;51.420;6.788;2023-02-19T01:56:37;32.10;;;18.03;;
41927;SDS011;27616;51.420;6.788;2023-02-19T01:59:06;32.97;;;19.30;;
41927;SDS011;27616;51.420;6.788;2023-02-19T02:01:33;32.53;;;18.17;;
41927;SDS011;27616;51.420;6.788;2023-02-19T02:04:01;32.23;;;18.57;;
41927;SDS011;27616;51.420;6.788;2023-02-19T02:06:30;30.20;;;18.25;;
41927;SDS011;27616;51.420;6.788;2023-02-19T02:09:02;33.50;;;18.30;;
41927;SDS011;27616;51.420;6.788;2023-02-19T02:11:47;34.77;;;19.13;;
41927;SDS011;27616;51.420;6.788;2023-02-19T02:14:18;33.17;;;18.52;;
41927;SDS011;27616;51.420;6.788;2023-02-19T02:22:28;34.20;;;19.90;;
41927;SDS011;27616;51.420;6.788;2023-02-19T02:28:16;35.17;;;18.03;;
41927;SDS011;27616;51.420;6.788;2023-02-19T02:33:36;35.70;;;20.17;;
41927;SDS011;27616;51.420;6.788;2023-02-19T02:36:12;34.27;;;18.67;;
41927;SDS011;27616;51.420;6.788;2023-02-19T02:38:45;33.70;;;18.73;;
41927;SDS011;27616;51.420;6.788;2023-02-19T02:41:13;35.60;;;19.02;;
41927;SDS011;27616;51.420;6.788;2023-02-19T02:43:40;37.40;;;18.73;;
41927;SDS011;27616;51.420;6.788;2023-02-19T02:46:09;31.73;;;18.70;;
41927;SDS011;27616;51.420;6.788;2023-02-19T02:48:47;33.13;;;18.20;;
41927;SDS011;27616;51.420;6.788;2023-02-19T02:56:58;32.47;;;17.23;;
41927;SDS011;27616;51.420;6.788;2023-02-19T02:59:30;34.80;;;18.20;;
41927;SDS011;27616;51.420;6.788;2023-02-19T03:02:06;35.37;;;17.23;;
41927;SDS011;27616;51.420;6.788;2023-02-19T03:10:29;30.90;;;15.43;;
41927;SDS011;27616;51.420;6.788;2023-02-19T03:12:56;28.60;;;15.93;;
41927;SDS011;27616;51.420;6.788;2023-02-19T03:15:47;33.10;;;15.43;;
41927;SDS011;27616;51.420;6.788;2023-02-19T03:18:34;29.27;;;14.77;;
41927;SDS011;27616;51.420;6.788;2023-02-19T03:21:20;31.50;;;15.73;;
41927;SDS011;27616;51.420;6.788;2023-02-19T03:23:48;30.97;;;14.73;;
41927;SDS011;27616;51.420;6.788;2023-02-19T03:26:34;30.83;;;15.10;;
41927;SDS011;27616;51.420;6.788;2023-02-19T03:29:02;31.27;;;14.30;;
41927;SDS011;27616;51.420;6.788;2023-02-19T03:31:46;34.20;;;15.50;;
41927;SDS011;27616;51.420;6.788;2023-02-19T03:37:08;27.07;;;14.00;;
41927;SDS011;27616;51.420;6.788;2023-02-19T03:39:37;29.70;;;14.07;;
41927;SDS011;27616;51.420;6.788;2023-02-19T03:42:15;25.30;;;13.50;;
41927;SDS011;27616;51.420;6.788;2023-02-19T03:45:01;28.13;;;12.95;;
41927;SDS011;27616;51.420;6.788;2023-02-19T03:47:40;30.30;;;12.63;;
41927;SDS011;27616;51.420;6.788;2023-02-19T03:50:18;31.10;;;13.27;;
41927;SDS011;27616;51.420;6.788;2023-02-19T03:57:55;27.90;;;13.23;;
41927;SDS011;27616;51.420;6.788;2023-02-19T04:00:33;23.17;;;12.70;;
41927;SDS011;27616;51.420;6.788;2023-02-19T04:03:06;29.50;;;13.10;;
41927;SDS011;27616;51.420;6.788;2023-02-19T04:05:34;23.63;;;12.65;;
41927;SDS011;27616;51.420;6.788;2023-02-19T04:08:08;24.90;;;12.07;;
41927;SDS011;27616;51.420;6.788;2023-02-19T04:10:51;29.70;;;12.30;;
41927;SDS011;27616;51.420;6.788;2023-02-19T04:13:26;28.33;;;11.93;;
41927;SDS011;27616;51.420;6.788;2023-02-19T04:16:05;25.27;;;12.10;;
41927;SDS011;27616;51.420;6.788;2023-02-19T04:18:34;25.53;;;11.60;;
41927;SDS011;27616;51.420;6.788;2023-02-19T04:21:03;23.47;;;11.60;;
41927;SDS011;27616;51.420;6.788;2023-02-19T04:23:32;30.70;;;12.00;;
41927;SDS011;27616;51.420;6.788;2023-02-19T04:26:03;30.90;;;12.07;;
41927;SDS011;27616;51.420;6.788;2023-02-19T04:28:30;27.60;;;11.73;;
41927;SDS011;27616;51.420;6.788;2023-02-19T04:30:56;27.67;;;12.00;;
41927;SDS011;27616;51.420;6.788;2023-02-19T04:33:22;33.17;;;12.77;;
41927;SDS011;27616;51.420;6.788;2023-02-19T04:35:48;29.97;;;13.57;;
41927;SDS011;27616;51.420;6.788;2023-02-19T04:38:13;36.67;;;14.60;;
41927;SDS011;27616;51.420;6.788;2023-02-19T04:40:39;40.40;;;15.10;;
41927;SDS011;27616;51.420;6.788;2023-02-19T04:43:05;33.77;;;14.27;;
41927;SDS011;27616;51.420;6.788;2023-02-19T04:45:31;36.07;;;15.13;;
41927;SDS011;27616;51.420;6.788;2023-02-19T04:47:57;33.37;;;13.93;;
41927;SDS011;27616;51.420;6.788;2023-02-19T04:50:23;36.33;;;14.40;;
41927;SDS011;27616;51.420;6.788;2023-02-19T04:52:49;37.90;;;16.03;;
41927;SDS011;27616;51.420;6.788;2023-02-19T04:55:15;31.73;;;13.30;;
41927;SDS011;27616;51.420;6.788;2023-02-19T04:57:41;33.80;;;14.67;;
41927;SDS011;27616;51.420;6.788;2023-02-19T05:00:07;32.33;;;14.23;;
41927;SDS011;27616;51.420;6.788;2023-02-19T05:02:33;31.97;;;13.43;;
41927;SDS011;27616;51.420;6.788;2023-02-19T05:04:59;33.10;;;13.20;;
41927;SDS011;27616;51.420;6.788;2023-02-19T05:07:25;33.17;;;13.07;;
41927;SDS011;27616;51.420;6.788;2023-02-19T05:09:50;29.10;;;12.67;;
41927;SDS011;27616;51.420;6.788;2023-02-19T05:12:16;30.63;;;12.23;;
41927;SDS011;27616;51.420;6.788;2023-02-19T05:14:43;29.10;;;13.13;;
41927;SDS011;27616;51.420;6.788;2023-02-19T05:17:09;28.10;;;11.30;;
41927;SDS011;27616;51.420;6.788;2023-02-19T05:19:35;31.17;;;12.27;;
41927;SDS011;27616;51.420;6.788;2023-02-19T05:22:00;31.80;;;12.03;;
41927;SDS011;27616;51.420;6.788;2023-02-19T05:24:26;28.70;;;11.90;;
41927;SDS011;27616;51.420;6.788;2023-02-19T05:26:52;29.13;;;11.83;;
41927;SDS011;27616;51.420;6.788;2023-02-19T05:29:18;28.00;;;11.30;;
41927;SDS011;27616;51.420;6.788;2023-02-19T05:31:43;36.50;;;12.50;;
41927;SDS011;27616;51.420;6.788;2023-02-19T05:34:09;28.43;;;11.80;;
41927;SDS011;27616;51.420;6.788;2023-02-19T05:36:35;29.07;;;12.13;;
41927;SDS011;27616;51.420;6.788;2023-02-19T05:39:02;31.63;;;12.83;;
41927;SDS011;27616;51.420;6.788;2023-02-19T05:41:30;40.35;;;14.35;;
41927;SDS011;27616;51.420;6.788;2023-02-19T05:43:56;30.30;;;13.63;;
41927;SDS011;27616;51.420;6.788;2023-02-19T05:46:23;34.97;;;13.47;;
41927;SDS011;27616;51.420;6.788;2023-02-19T05:48:50;36.63;;;14.83;;
41927;SDS011;27616;51.420;6.788;2023-02-19T05:51:18;42.27;;;15.17;;
41927;SDS011;27616;51.420;6.788;2023-02-19T05:53:45;38.03;;;12.83;;
41927;SDS011;27616;51.420;6.788;2023-02-19T05:58:58;25.67;;;11.90;;
41927;SDS011;27616;51.420;6.788;2023-02-19T06:01:32;34.10;;;12.80;;
41927;SDS011;27616;51.420;6.788;2023-02-19T06:03:59;31.57;;;12.40;;
41927;SDS011;27616;51.420;6.788;2023-02-19T06:06:25;35.30;;;12.23;;
41927;SDS011;27616;51.420;6.788;2023-02-19T06:08:51;31.93;;;12.63;;
41927;SDS011;27616;51.420;6.788;2023-02-19T06:11:18;28.77;;;11.70;;
41927;SDS011;27616;51.420;6.788;2023-02-19T06:13:44;28.40;;;12.03;;
41927;SDS011;27616;51.420;6.788;2023-02-19T06:16:10;32.10;;;11.80;;
41927;SDS011;27616;51.420;6.788;2023-02-19T06:18:36;34.47;;;12.97;;
41927;SDS011;27616;51.420;6.788;2023-02-19T06:21:04;30.27;;;12.03;;
41927;SDS011;27616;51.420;6.788;2023-02-19T06:23:32;29.43;;;12.00;;
41927;SDS011;27616;51.420;6.788;2023-02-19T06:26:31;28.53;;;11.73;;
41927;SDS011;27616;51.420;6.788;2023-02-19T06:28:50;32.53;;;11.30;;
41927;SDS011;27616;51.420;6.788;2023-02-19T06:31:18;25.37;;;10.33;;
41927;SDS011;27616;51.420;6.788;2023-02-19T06:33:44;27.00;;;10.73;;
41927;SDS011;27616;51.420;6.788;2023-02-19T06:36:15;31.50;;;11.10;;
41927;SDS011;27616;51.420;6.788;2023-02-19T06:38:42;31.03;;;11.23;;
41927;SDS011;27616;51.420;6.788;2023-02-19T06:41:08;23.27;;;10.20;;
41927;SDS011;27616;51.420;6.788;2023-02-19T06:43:34;23.30;;;9.23;;
41927;SDS011;27616;51.420;6.788;2023-02-19T06:46:01;24.17;;;9.73;;
41927;SDS011;27616;51.420;6.788;2023-02-19T06:48:28;31.23;;;10.17;;
41927;SDS011;27616;51.420;6.788;2023-02-19T06:50:55;24.43;;;9.47;;
41927;SDS011;27616;51.420;6.788;2023-02-19T06:53:21;27.00;;;9.90;;
41927;SDS011;27616;51.420;6.788;2023-02-19T06:55:54;25.47;;;10.30;;
41927;SDS011;27616;51.420;6.788;2023-02-19T06:58:21;26.40;;;9.57;;
41927;SDS011;27616;51.420;6.788;2023-02-19T07:00:46;21.73;;;9.30;;
41927;SDS011;27616;51.420;6.788;2023-02-19T07:03:12;26.37;;;10.10;;
41927;SDS011;27616;51.420;6.788;2023-02-19T07:05:38;27.70;;;9.30;;
41927;SDS011;27616;51.420;6.788;2023-02-19T07:08:03;23.70;;;9.57;;
41927;SDS011;27616;51.420;6.788;2023-02-19T07:10:29;24.17;;;9.00;;
41927;SDS011;27616;51.420;6.788;2023-02-19T07:12:55;24.87;;;9.27;;
41927;SDS011;27616;51.420;6.788;2023-02-19T07:15:20;23.47;;;10.27;;
41927;SDS011;27616;51.420;6.788;2023-02-19T07:17:46;26.80;;;10.00;;
41927;SDS011;27616;51.420;6.788;2023-02-19T07:20:12;24.73;;;10.10;;
41927;SDS011;27616;51.420;6.788;2023-02-19T07:22:38;28.73;;;9.63;;
41927;SDS011;27616;51.420;6.788;2023-02-19T07:25:03;22.03;;;8.97;;
41927;SDS011;27616;51.420;6.788;2023-02-19T07:27:29;32.10;;;11.50;;
41927;SDS011;27616;51.420;6.788;2023-02-19T07:29:55;33.23;;;11.73;;
41927;SDS011;27616;51.420;6.788;2023-02-19T07:32:21;34.73;;;12.73;;
41927;SDS011;27616;51.420;6.788;2023-02-19T07:34:47;34.23;;;12.90;;
41927;SDS011;27616;51.420;6.788;2023-02-19T07:37:12;34.27;;;13.33;;
41927;SDS011;27616;51.420;6.788;2023-02-19T07:39:38;39.27;;;14.40;;
41927;SDS011;27616;51.420;6.788;2023-02-19T07:42:04;36.70;;;15.53;;
41927;SDS011;27616;51.420;6.788;2023-02-19T07:44:30;33.33;;;13.03;;
41927;SDS011;27616;51.420;6.788;2023-02-19T07:46:56;26.87;;;12.80;;
41927;SDS011;27616;51.420;6.788;2023-02-19T07:49:22;31.93;;;12.03;;
41927;SDS011;27616;51.420;6.788;2023-02-19T07:51:47;32.77;;;11.93;;
41927;SDS011;27616;51.420;6.788;2023-02-19T07:54:13;29.53;;;12.03;;
41927;SDS011;27616;51.420;6.788;2023-02-19T07:56:39;28.50;;;11.53;;
41927;SDS011;27616;51.420;6.788;2023-02-19T07:59:05;30.53;;;11.97;;
41927;SDS011;27616;51.420;6.788;2023-02-19T08:01:30;28.73;;;10.90;;
41927;SDS011;27616;51.420;6.788;2023-02-19T08:04:15;26.93;;;12.27;;
41927;SDS011;27616;51.420;6.788;2023-02-19T08:06:41;25.93;;;12.07;;
41927;SDS011;27616;51.420;6.788;2023-02-19T08:09:06;33.03;;;12.07;;
41927;SDS011;27616;51.420;6.788;2023-02-19T08:11:32;35.07;;;12.67;;
41927;SDS011;27616;51.420;6.788;2023-02-19T08:14:17;31.40;;;11.73;;
41927;SDS011;27616;51.420;6.788;2023-02-19T08:16:49;27.70;;;11.80;;
41927;SDS011;27616;51.420;6.788;2023-02-19T08:19:16;28.53;;;11.20;;
41927;SDS011;27616;51.420;6.788;2023-02-19T08:21:42;24.80;;;11.47;;
41927;SDS011;27616;51.420;6.788;2023-02-19T08:24:08;27.87;;;10.87;;
41927;SDS011;27616;51.420;6.788;2023-02-19T08:26:34;25.93;;;10.70;;
41927;SDS011;27616;51.420;6.788;2023-02-19T08:29:00;36.17;;;13.03;;
41927;SDS011;27616;51.420;6.788;2023-02-19T08:31:25;27.33;;;11.20;;
41927;SDS011;27616;51.420;6.788;2023-02-19T08:33:51;25.83;;;10.50;;
41927;SDS011;27616;51.420;6.788;2023-02-19T08:36:17;25.73;;;10.37;;
41927;SDS011;27616;51.420;6.788;2023-02-19T08:38:43;26.13;;;10.83;;
41927;SDS011;27616;51.420;6.788;2023-02-19T08:41:09;28.03;;;10.50;;
41927;SDS011;27616;51.420;6.788;2023-02-19T08:43:37;22.03;;;9.67;;
41927;SDS011;27616;51.420;6.788;2023-02-19T08:46:03;25.10;;;10.97;;
41927;SDS011;27616;51.420;6.788;2023-02-19T08:48:31;23.47;;;10.13;;
41927;SDS011;27616;51.420;6.788;2023-02-19T08:50:57;22.07;;;9.50;;
41927;SDS011;27616;51.420;6.788;2023-02-19T08:53:28;25.53;;;10.00;;
41927;SDS011;27616;51.420;6.788;2023-02-19T08:55:55;24.33;;;9.87;;
41927;SDS011;27616;51.420;6.788;2023-02-19T08:58:21;23.40;;;9.37;;
41927;SDS011;27616;51.420;6.788;2023-02-19T09:00:49;26.63;;;9.77;;
41927;SDS011;27616;51.420;6.788;2023-02-19T09:03:14;21.87;;;8.97;;
41927;SDS011;27616;51.420;6.788;2023-02-19T09:05:40;23.53;;;9.70;;
41927;SDS011;27616;51.420;6.788;2023-02-19T09:08:06;23.00;;;8.70;;
41927;SDS011;27616;51.420;6.788;2023-02-19T09:10:32;19.33;;;8.77;;
41927;SDS011;27616;51.420;6.788;2023-02-19T09:12:58;17.70;;;8.53;;
41927;SDS011;27616;51.420;6.788;2023-02-19T09:15:23;22.10;;;9.27;;
41927;SDS011;27616;51.420;6.788;2023-02-19T09:17:50;21.87;;;8.87;;
41927;SDS011;27616;51.420;6.788;2023-02-19T09:20:16;21.93;;;7.93;;
41927;SDS011;27616;51.420;6.788;2023-02-19T09:22:43;17.10;;;8.20;;
41927;SDS011;27616;51.420;6.788;2023-02-19T09:25:08;22.77;;;8.00;;
41927;SDS011;27616;51.420;6.788;2023-02-19T09:27:34;21.67;;;7.80;;
41927;SDS011;27616;51.420;6.788;2023-02-19T09:30:00;20.40;;;8.73;;
41927;SDS011;27616;51.420;6.788;2023-02-19T09:32:25;21.40;;;8.97;;
41927;SDS011;27616;51.420;6.788;2023-02-19T09:34:53;19.43;;;8.20;;
41927;SDS011;27616;51.420;6.788;2023-02-19T09:37:19;20.43;;;9.33;;
41927;SDS011;27616;51.420;6.788;2023-02-19T09:39:50;25.67;;;9.53;;
41927;SDS011;27616;51.420;6.788;2023-02-19T09:42:17;24.57;;;8.53;;
41927;SDS011;27616;51.420;6.788;2023-02-19T09:44:45;21.42;;;8.35;;
41927;SDS011;27616;51.420;6.788;2023-02-19T09:47:17;21.97;;;8.43;;
41927;SDS011;27616;51.420;6.788;2023-02-19T09:49:48;20.17;;;8.40;;
41927;SDS011;27616;51.420;6.788;2023-02-19T09:52:37;15.57;;;7.88;;
41927;SDS011;27616;51.420;6.788;2023-02-19T09:57:39;14.73;;;6.70;;
41927;SDS011;27616;51.420;6.788;2023-02-19T10:00:19;17.10;;;6.90;;
41927;SDS011;27616;51.420;6.788;2023-02-19T10:02:50;17.53;;;7.60;;
41927;SDS011;27616;51.420;6.788;2023-02-19T10:05:24;16.07;;;7.23;;
41927;SDS011;27616;51.420;6.788;2023-02-19T10:07:51;13.50;;;6.53;;
41927;SDS011;27616;51.420;6.788;2023-02-19T10:10:20;10.73;;;6.13;;
41927;SDS011;27616;51.420;6.788;2023-02-19T10:12:58;12.47;;;6.23;;
41927;SDS011;27616;51.420;6.788;2023-02-19T10:15:46;11.23;;;5.93;;
41927;SDS011;27616;51.420;6.788;2023-02-19T10:18:16;13.17;;;6.13;;
41927;SDS011;27616;51.420;6.788;2023-02-19T10:20:44;15.20;;;5.40;;
41927;SDS011;27616;51.420;6.788;2023-02-19T10:23:12;14.97;;;6.40;;
41927;SDS011;27616;51.420;6.788;2023-02-19T10:25:42;13.53;;;5.80;;
41927;SDS011;27616;51.420;6.788;2023-02-19T10:28:12;14.73;;;6.20;;
41927;SDS011;27616;51.420;6.788;2023-02-19T10:30:46;18.33;;;6.80;;
41927;SDS011;27616;51.420;6.788;2023-02-19T10:33:16;16.83;;;6.67;;
41927;SDS011;27616;51.420;6.788;2023-02-19T10:35:50;14.00;;;6.07;;
41927;SDS011;27616;51.420;6.788;2023-02-19T10:38:17;17.90;;;7.73;;
41927;SDS011;27616;51.420;6.788;2023-02-19T10:40:45;18.77;;;7.30;;
41927;SDS011;27616;51.420;6.788;2023-02-19T10:43:22;14.80;;;6.97;;
41927;SDS011;27616;51.420;6.788;2023-02-19T10:45:57;13.27;;;6.60;;
41927;SDS011;27616;51.420;6.788;2023-02-19T10:48:36;14.35;;;6.15;;
41927;SDS011;27616;51.420;6.788;2023-02-19T10:51:05;14.85;;;6.32;;
41927;SDS011;27616;51.420;6.788;2023-02-19T10:53:49;22.50;;;8.10;;
41927;SDS011;27616;51.420;6.788;2023-02-19T10:56:27;18.08;;;7.90;;
41927;SDS011;27616;51.420;6.788;2023-02-19T10:58:55;18.48;;;7.25;;
41927;SDS011;27616;51.420;6.788;2023-02-19T11:01:54;18.63;;;7.38;;
41927;SDS011;27616;51.420;6.788;2023-02-19T11:04:22;11.52;;;5.90;;
41927;SDS011;27616;51.420;6.788;2023-02-19T11:06:48;12.70;;;6.43;;
41927;SDS011;27616;51.420;6.788;2023-02-19T11:09:21;14.65;;;4.55;;
41927;SDS011;27616;51.420;6.788;2023-02-19T11:11:51;14.35;;;6.15;;
41927;SDS011;27616;51.420;6.788;2023-02-19T11:14:19;15.45;;;6.15;;
41927;SDS011;27616;51.420;6.788;2023-02-19T11:16:57;10.02;;;3.97;;
41927;SDS011;27616;51.420;6.788;2023-02-19T11:21:56;10.00;;;3.93;;
41927;SDS011;27616;51.420;6.788;2023-02-19T11:27:05;6.53;;;3.67;;
41927;SDS011;27616;51.420;6.788;2023-02-19T11:29:40;8.30;;;3.80;;
41927;SDS011;27616;51.420;6.788;2023-02-19T11:32:15;8.10;;;3.80;;
41927;SDS011;27616;51.420;6.788;2023-02-19T11:35:14;6.73;;;3.60;;
41927;SDS011;27616;51.420;6.788;2023-02-19T11:40:24;11.37;;;4.13;;
41927;SDS011;27616;51.420;6.788;2023-02-19T11:45:43;8.57;;;3.90;;
41927;SDS011;27616;51.420;6.788;2023-02-19T11:48:20;10.18;;;4.53;;
41927;SDS011;27616;51.420;6.788;2023-02-19T11:51:00;7.47;;;4.20;;
41927;SDS011;27616;51.420;6.788;2023-02-19T11:53:31;8.13;;;3.93;;
41927;SDS011;27616;51.420;6.788;2023-02-19T11:58:56;6.97;;;3.90;;
41927;SDS011;27616;51.420;6.788;2023-02-19T12:23:31;9.13;;;5.07;;
41927;SDS011;27616;51.420;6.788;2023-02-19T12:31:30;6.10;;;2.63;;
41927;SDS011;27616;51.420;6.788;2023-02-19T12:45:00;5.87;;;2.73;;
41927;SDS011;27616;51.420;6.788;2023-02-19T12:47:31;5.27;;;3.00;;
41927;SDS011;27616;51.420;6.788;2023-02-19T12:52:30;6.17;;;2.40;;
41927;SDS011;27616;51.420;6.788;2023-02-19T12:55:06;4.23;;;2.40;;
41927;SDS011;27616;51.420;6.788;2023-02-19T12:57:41;5.67;;;2.60;;
41927;SDS011;27616;51.420;6.788;2023-02-19T13:06:00;7.00;;;3.23;;
41927;SDS011;27616;51.420;6.788;2023-02-19T13:08:45;4.97;;;2.90;;
41927;SDS011;27616;51.420;6.788;2023-02-19T13:11:24;6.90;;;3.90;;
41927;SDS011;27616;51.420;6.788;2023-02-19T13:14:00;7.20;;;3.67;;
41927;SDS011;27616;51.420;6.788;2023-02-19T13:16:32;10.20;;;4.73;;
41927;SDS011;27616;51.420;6.788;2023-02-19T13:19:03;7.23;;;3.90;;
41927;SDS011;27616;51.420;6.788;2023-02-19T13:21:30;7.00;;;3.33;;
41927;SDS011;27616;51.420;6.788;2023-02-19T13:24:20;8.70;;;3.70;;
41927;SDS011;27616;51.420;6.788;2023-02-19T13:29:33;7.50;;;3.75;;
41927;SDS011;27616;51.420;6.788;2023-02-19T13:32:12;7.67;;;3.80;;
41927;SDS011;27616;51.420;6.788;2023-02-19T13:37:36;7.60;;;4.20;;
41927;SDS011;27616;51.420;6.788;2023-02-19T13:40:15;9.23;;;4.53;;
41927;SDS011;27616;51.420;6.788;2023-02-19T13:42:53;9.73;;;4.87;;
41927;SDS011;27616;51.420;6.788;2023-02-19T13:45:21;10.13;;;5.50;;
41927;SDS011;27616;51.420;6.788;2023-02-19T13:52:47;13.57;;;5.93;;
41927;SDS011;27616;51.420;6.788;2023-02-19T14:01:10;34.20;;;10.90;;
41927;SDS011;27616;51.420;6.788;2023-02-19T14:06:17;20.50;;;9.17;;
41927;SDS011;27616;51.420;6.788;2023-02-19T14:08:47;20.73;;;10.17;;
41927;SDS011;27616;51.420;6.788;2023-02-19T14:14:26;16.47;;;7.77;;
41927;SDS011;27616;51.420;6.788;2023-02-19T14:25:27;15.47;;;8.20;;
41927;SDS011;27616;51.420;6.788;2023-02-19T14:30:42;15.77;;;9.63;;
41927;SDS011;27616;51.420;6.788;2023-02-19T14:33:14;16.97;;;9.20;;
41927;SDS011;27616;51.420;6.788;2023-02-19T14:35:42;16.88;;;9.07;;
41927;SDS011;27616;51.420;6.788;2023-02-19T14:38:17;17.95;;;9.77;;
41927;SDS011;27616;51.420;6.788;2023-02-19T14:40:50;18.50;;;10.40;;
41927;SDS011;27616;51.420;6.788;2023-02-19T14:43:17;19.00;;;9.87;;
41927;SDS011;27616;51.420;6.788;2023-02-19T14:45:49;19.80;;;9.63;;
41927;SDS011;27616;51.420;6.788;2023-02-19T14:48:18;20.73;;;9.80;;
41927;SDS011;27616;51.420;6.788;2023-02-19T14:50:59;16.13;;;9.50;;
41927;SDS011;27616;51.420;6.788;2023-02-19T14:53:28;14.47;;;9.00;;
41927;SDS011;27616;51.420;6.788;2023-02-19T14:55:56;18.60;;;9.70;;
41927;SDS011;27616;51.420;6.788;2023-02-19T14:58:25;19.77;;;10.63;;
41927;SDS011;27616;51.420;6.788;2023-02-19T15:00:55;25.43;;;13.77;;
41927;SDS011;27616;51.420;6.788;2023-02-19T15:05:56;19.07;;;10.93;;
41927;SDS011;27616;51.420;6.788;2023-02-19T15:08:33;24.37;;;10.90;;
41927;SDS011;27616;51.420;6.788;2023-02-19T15:11:02;19.00;;;10.77;;
41927;SDS011;27616;51.420;6.788;2023-02-19T15:13:33;20.30;;;11.17;;
41927;SDS011;27616;51.420;6.788;2023-02-19T15:15:59;20.07;;;11.47;;
41927;SDS011;27616;51.420;6.788;2023-02-19T15:18:25;21.47;;;11.50;;
41927;SDS011;27616;51.420;6.788;2023-02-19T15:20:59;22.13;;;11.00;;
41927;SDS011;27616;51.420;6.788;2023-02-19T15:23:27;17.63;;;10.30;;
41927;SDS011;27616;51.420;6.788;2023-02-19T15:25:55;20.23;;;11.93;;
41927;SDS011;27616;51.420;6.788;2023-02-19T15:33:21;18.10;;;11.63;;
41927;SDS011;27616;51.420;6.788;2023-02-19T15:35:49;20.83;;;11.60;;
41927;SDS011;27616;51.420;6.788;2023-02-19T15:38:23;19.23;;;10.60;;
41927;SDS011;27616;51.420;6.788;2023-02-19T15:40:49;17.43;;;11.17;;
41927;SDS011;27616;51.420;6.788;2023-02-19T15:43:20;21.53;;;11.53;;
41927;SDS011;27616;51.420;6.788;2023-02-19T15:45:47;19.10;;;11.97;;
41927;SDS011;27616;51.420;6.788;2023-02-19T15:48:17;22.13;;;12.43;;
41927;SDS011;27616;51.420;6.788;2023-02-19T15:50:49;21.57;;;12.37;;
41927;SDS011;27616;51.420;6.788;2023-02-19T15:53:21;20.30;;;11.37;;
41927;SDS011;27616;51.420;6.788;2023-02-19T15:56:00;24.47;;;11.47;;
41927;SDS011;27616;51.420;6.788;2023-02-19T15:58:37;18.50;;;11.13;;
41927;SDS011;27616;51.420;6.788;2023-02-19T16:01:20;18.03;;;11.17;;
41927;SDS011;27616;51.420;6.788;2023-02-19T16:03:52;22.33;;;11.67;;
41927;SDS011;27616;51.420;6.788;2023-02-19T16:06:19;22.50;;;12.37;;
41927;SDS011;27616;51.420;6.788;2023-02-19T16:14:27;14.97;;;8.87;;
41927;SDS011;27616;51.420;6.788;2023-02-19T16:19:29;16.83;;;8.80;;
41927;SDS011;27616;51.420;6.788;2023-02-19T16:24:35;12.20;;;6.70;;
41927;SDS011;27616;51.420;6.788;2023-02-19T16:27:05;11.83;;;5.43;;
41927;SDS011;27616;51.420;6.788;2023-02-19T16:29:32;8.57;;;4.73;;
41927;SDS011;27616;51.420;6.788;2023-02-19T16:31:59;10.83;;;4.47;;
41927;SDS011;27616;51.420;6.788;2023-02-19T16:34:32;10.25;;;5.35;;
41927;SDS011;27616;51.420;6.788;2023-02-19T16:37:01;14.07;;;5.33;;
41927;SDS011;27616;51.420;6.788;2023-02-19T16:42:07;4.43;;;2.40;;
41927;SDS011;27616;51.420;6.788;2023-02-19T16:44:36;5.83;;;2.43;;
41927;SDS011;27616;51.420;6.788;2023-02-19T16:47:05;4.30;;;2.60;;
41927;SDS011;27616;51.420;6.788;2023-02-19T16:49:38;7.97;;;3.93;;
41927;SDS011;27616;51.420;6.788;2023-02-19T16:52:06;9.32;;;4.07;;
41927;SDS011;27616;51.420;6.788;2023-02-19T16:54:36;6.13;;;2.80;;
41927;SDS011;27616;51.420;6.788;2023-02-19T16:57:01;6.53;;;2.87;;
41927;SDS011;27616;51.420;6.788;2023-02-19T16:59:27;7.63;;;3.43;;
41927;SDS011;27616;51.420;6.788;2023-02-19T17:01:53;10.33;;;4.70;;
41927;SDS011;27616;51.420;6.788;2023-02-19T17:04:19;12.00;;;4.27;;
41927;SDS011;27616;51.420;6.788;2023-02-19T17:06:45;9.07;;;4.80;;
41927;SDS011;27616;51.420;6.788;2023-02-19T17:09:11;8.77;;;4.70;;
41927;SDS011;27616;51.420;6.788;2023-02-19T17:11:37;7.83;;;4.50;;
41927;SDS011;27616;51.420;6.788;2023-02-19T17:14:03;12.60;;;5.67;;
41927;SDS011;27616;51.420;6.788;2023-02-19T17:16:30;11.57;;;5.67;;